Time,TemperatureF,DewpointF,PressureIn,WindDirection,WindDirectionDegrees,WindSpeedMPH,WindSpeedGustMPH,Humidity,HourlyPrecipIn,Conditions,Clouds,dailyrainin,SoftwareType,DateUTC
2013-08-20 00:23:00,65.0,62.0,-100.00,WSW,240,0.0,3.0,88,0.00,,,-99.99,,2013-08-20 04:23:00,
2013-08-20 00:53:00,64.0,61.0,-100.00,NNE,30,0.0,2.0,89,0.00,,,-99.99,,2013-08-20 04:53:00,
2013-08-20 01:12:00,64.0,61.0,-100.00,NNE,15,0.0,1.0,90,0.00,,,-99.99,,2013-08-20 05:12:00,
2013-08-20 01:22:00,64.0,61.0,-100.00,NNW,340,0.0,3.0,90,0.00,,,-99.99,,2013-08-20 05:22:00,
2013-08-20 01:52:00,64.0,61.0,-100.00,NNE,30,0.0,2.0,91,0.00,,,-99.99,,2013-08-20 05:52:00,
2013-08-20 02:21:00,64.0,61.0,-100.00,East,90,0.0,2.0,92,0.00,,,-99.99,,2013-08-20 06:21:00,
2013-08-20 02:52:00,63.0,61.0,-100.00,North,5,0.0,2.0,92,0.00,,,-99.99,,2013-08-20 06:52:00,
2013-08-20 03:52:00,63.0,61.0,-100.00,ENE,60,1.0,3.0,92,0.00,,,-99.99,,2013-08-20 07:52:00,
2013-08-20 04:52:00,62.0,60.0,-100.00,NE,50,0.0,3.0,92,0.00,,,-99.99,,2013-08-20 08:52:00,
2013-08-20 05:53:00,62.0,60.0,-100.00,NE,40,1.0,2.0,93,0.00,,,-99.99,,2013-08-20 09:53:00,
2013-08-20 06:22:00,61.0,59.0,-100.00,NE,50,1.0,3.0,93,0.00,,,-99.99,,2013-08-20 10:22:00,
2013-08-20 06:52:00,61.0,59.0,-100.00,ENE,65,1.0,3.0,93,0.00,,,-99.99,,2013-08-20 10:52:00,
2013-08-20 07:52:00,62.0,59.0,-100.00,NNE,15,1.0,3.0,92,0.00,,,-99.99,,2013-08-20 11:52:00,
2013-08-20 08:12:00,62.0,60.0,-100.00,East,95,1.0,4.0,92,0.00,,,-99.99,,2013-08-20 12:12:00,
2013-08-20 09:42:00,69.0,63.0,-100.00,WNW,300,1.0,5.0,81,0.00,,,-99.99,,2013-08-20 13:42:00,
2013-08-20 09:52:00,69.0,63.0,-100.00,WNW,300,1.0,5.0,81,0.00,,,-99.99,,2013-08-20 13:52:00,
2013-08-20 10:11:00,72.0,64.0,-100.00,ENE,70,1.0,4.0,77,0.00,,,-99.99,,2013-08-20 14:11:00,
2013-08-20 12:30:00,-999.0,-99.9,-100.00,ESE,115,1.0,4.0,56,0.00,,,-99.99,,2013-08-20 16:30:00,
2013-08-20 12:52:00,85.0,63.0,-100.00,SW,225,2.0,6.0,48,0.00,,,-99.99,,2013-08-20 16:52:00,
2013-08-20 13:24:00,86.0,62.0,-100.00,ESE,110,1.0,5.0,44,0.00,,,-99.99,,2013-08-20 17:24:00,
2013-08-20 13:43:00,86.0,62.0,-100.00,East,95,2.0,6.0,44,0.00,,,-99.99,,2013-08-20 17:43:00,
2013-08-20 14:22:00,87.0,60.0,-100.00,ESE,115,1.0,6.0,40,0.00,,,-99.99,,2013-08-20 18:22:00,
2013-08-20 16:22:00,88.0,62.0,-100.00,South,185,2.0,6.0,42,0.00,,,-99.99,,2013-08-20 20:22:00,
2013-08-20 16:52:00,89.0,62.0,-100.00,ENE,65,1.0,7.0,40,0.00,,,-99.99,,2013-08-20 20:52:00,
2013-08-20 17:22:00,87.0,63.0,-100.00,SW,235,2.0,6.0,44,0.00,,,-99.99,,2013-08-20 21:22:00,
2013-08-20 17:34:00,87.0,63.0,-100.00,SW,235,2.0,6.0,44,0.00,,,-99.99,,2013-08-20 21:34:00,
2013-08-20 17:55:00,87.0,64.0,-100.00,SW,230,2.0,6.0,47,0.00,,,-99.99,,2013-08-20 21:55:00,
2013-08-20 18:24:00,85.0,65.0,-100.00,SW,230,1.0,6.0,50,0.00,,,-99.99,,2013-08-20 22:24:00,
2013-08-20 18:53:00,83.0,64.0,-100.00,NW,325,1.0,4.0,51,0.00,,,-99.99,,2013-08-20 22:53:00,
2013-08-20 19:03:00,83.0,64.0,-100.00,NW,325,1.0,4.0,51,0.00,,,-99.99,,2013-08-20 23:03:00,
2013-08-20 19:12:00,83.0,64.0,-100.00,NW,325,1.0,4.0,51,0.00,,,-99.99,,2013-08-20 23:12:00,
2013-08-20 20:23:00,79.0,68.0,-100.00,NW,305,1.0,3.0,70,0.00,,,-99.99,,2013-08-21 00:23:00,
2013-08-20 20:32:00,79.0,68.0,-100.00,NW,305,1.0,3.0,70,0.00,,,-99.99,,2013-08-21 00:32:00,
2013-08-20 20:52:00,77.0,68.0,-100.00,ENE,60,1.0,4.0,75,0.00,,,-99.99,,2013-08-21 00:52:00,
2013-08-20 21:22:00,75.0,68.0,-100.00,NE,40,1.0,4.0,77,0.00,,,-99.99,,2013-08-21 01:22:00,
2013-08-20 21:52:00,74.0,67.0,-100.00,ENE,65,1.0,3.0,78,0.00,,,-99.99,,2013-08-21 01:52:00,
2013-08-20 22:22:00,74.0,67.0,-100.00,NE,40,1.0,3.0,78,0.00,,,-99.99,,2013-08-21 02:22:00,
2013-08-20 22:52:00,72.0,67.0,-100.00,North,0,1.0,1.0,83,0.00,,,-99.99,,2013-08-21 02:52:00,
2013-08-20 23:12:00,72.0,67.0,-100.00,NE,55,1.0,2.0,82,0.00,,,-99.99,,2013-08-21 03:12:00,
2013-08-20 23:23:00,73.0,66.0,-100.00,ENE,65,0.0,2.0,80,0.00,,,-99.99,,2013-08-21 03:23:00,
2013-08-20 23:55:00,72.0,66.0,-100.00,North,0,1.0,3.0,82,0.00,,,-99.99,,2013-08-21 03:55:00,